sensor_id;sensor_type;location;lat;lon;timestamp;temperature;humidity
8332;DHT22;4203;48.144;14.118;2023-06-22T00:00:57;18.30;99.90
8332;DHT22;4203;48.144;14.118;2023-06-22T00:03:24;18.20;99.90
8332;DHT22;4203;48.144;14.118;2023-06-22T00:05:53;18.30;99.90
8332;DHT22;4203;48.144;14.118;2023-06-22T00:08:22;18.30;99.90
8332;DHT22;4203;48.144;14.118;2023-06-22T00:10:49;18.40;99.90
8332;DHT22;4203;48.144;14.118;2023-06-22T00:13:17;18.40;99.90
8332;DHT22;4203;48.144;14.118;2023-06-22T00:15:44;18.40;99.90
8332;DHT22;4203;48.144;14.118;2023-06-22T00:18:11;18.30;99.90
8332;DHT22;4203;48.144;14.118;2023-06-22T00:20:41;18.20;99.90
8332;DHT22;4203;48.144;14.118;2023-06-22T00:23:09;18.10;99.90
8332;DHT22;4203;48.144;14.118;2023-06-22T00:25:37;18.10;99.90
8332;DHT22;4203;48.144;14.118;2023-06-22T00:28:06;18.00;99.90
8332;DHT22;4203;48.144;14.118;2023-06-22T00:30:34;18.00;99.90
8332;DHT22;4203;48.144;14.118;2023-06-22T00:33:01;18.10;99.90
8332;DHT22;4203;48.144;14.118;2023-06-22T00:35:28;18.10;99.90
8332;DHT22;4203;48.144;14.118;2023-06-22T00:37:56;18.00;99.90
8332;DHT22;4203;48.144;14.118;2023-06-22T00:40:28;18.00;99.90
8332;DHT22;4203;48.144;14.118;2023-06-22T00:42:55;18.00;99.90
8332;DHT22;4203;48.144;14.118;2023-06-22T00:45:22;17.90;99.90
8332;DHT22;4203;48.144;14.118;2023-06-22T00:47:50;17.90;99.90
8332;DHT22;4203;48.144;14.118;2023-06-22T00:50:20;17.80;99.90
8332;DHT22;4203;48.144;14.118;2023-06-22T00:52:51;17.80;99.90
8332;DHT22;4203;48.144;14.118;2023-06-22T00:55:19;17.80;99.90
8332;DHT22;4203;48.144;14.118;2023-06-22T00:57:48;17.80;99.90
8332;DHT22;4203;48.144;14.118;2023-06-22T01:00:16;17.70;99.90
8332;DHT22;4203;48.144;14.118;2023-06-22T01:02:45;17.70;99.90
8332;DHT22;4203;48.144;14.118;2023-06-22T01:05:16;17.60;99.90
8332;DHT22;4203;48.144;14.118;2023-06-22T01:07:55;17.60;99.90
8332;DHT22;4203;48.144;14.118;2023-06-22T01:10:29;17.50;99.90
8332;DHT22;4203;48.144;14.118;2023-06-22T01:13:07;17.60;99.90
8332;DHT22;4203;48.144;14.118;2023-06-22T01:15:45;17.50;99.90
8332;DHT22;4203;48.144;14.118;2023-06-22T01:18:15;17.40;99.90
8332;DHT22;4203;48.144;14.118;2023-06-22T01:20:44;17.40;99.90
8332;DHT22;4203;48.144;14.118;2023-06-22T01:23:19;17.30;99.90
8332;DHT22;4203;48.144;14.118;2023-06-22T01:25:57;17.30;99.90
8332;DHT22;4203;48.144;14.118;2023-06-22T01:28:42;17.20;99.90
8332;DHT22;4203;48.144;14.118;2023-06-22T01:31:12;17.20;99.90
8332;DHT22;4203;48.144;14.118;2023-06-22T01:33:42;17.20;99.90
8332;DHT22;4203;48.144;14.118;2023-06-22T01:36:10;17.20;99.90
8332;DHT22;4203;48.144;14.118;2023-06-22T01:38:38;17.20;99.90
8332;DHT22;4203;48.144;14.118;2023-06-22T01:41:06;17.20;99.90
8332;DHT22;4203;48.144;14.118;2023-06-22T01:43:34;17.10;99.90
8332;DHT22;4203;48.144;14.118;2023-06-22T01:46:04;17.10;99.90
8332;DHT22;4203;48.144;14.118;2023-06-22T01:48:31;17.10;99.90
8332;DHT22;4203;48.144;14.118;2023-06-22T01:50:59;17.00;99.90
8332;DHT22;4203;48.144;14.118;2023-06-22T01:53:26;17.00;99.90
8332;DHT22;4203;48.144;14.118;2023-06-22T01:55:53;17.00;99.90
8332;DHT22;4203;48.144;14.118;2023-06-22T01:58:23;17.00;99.90
8332;DHT22;4203;48.144;14.118;2023-06-22T02:00:55;16.90;99.90
8332;DHT22;4203;48.144;14.118;2023-06-22T02:03:29;16.90;99.90
8332;DHT22;4203;48.144;14.118;2023-06-22T02:06:02;17.00;99.90
8332;DHT22;4203;48.144;14.118;2023-06-22T02:08:35;16.90;99.90
8332;DHT22;4203;48.144;14.118;2023-06-22T02:11:03;16.90;99.90
8332;DHT22;4203;48.144;14.118;2023-06-22T02:13:33;16.90;99.90
8332;DHT22;4203;48.144;14.118;2023-06-22T02:16:01;16.90;99.90
8332;DHT22;4203;48.144;14.118;2023-06-22T02:18:30;16.90;99.90
8332;DHT22;4203;48.144;14.118;2023-06-22T02:20:57;16.80;99.90
8332;DHT22;4203;48.144;14.118;2023-06-22T02:23:25;16.80;99.90
8332;DHT22;4203;48.144;14.118;2023-06-22T02:25:52;16.80;99.90
8332;DHT22;4203;48.144;14.118;2023-06-22T02:28:19;16.70;99.90
8332;DHT22;4203;48.144;14.118;2023-06-22T02:30:46;16.70;99.90
8332;DHT22;4203;48.144;14.118;2023-06-22T02:33:13;16.70;99.90
8332;DHT22;4203;48.144;14.118;2023-06-22T02:35:42;16.70;99.90
8332;DHT22;4203;48.144;14.118;2023-06-22T02:38:13;16.70;99.90
8332;DHT22;4203;48.144;14.118;2023-06-22T02:40:41;16.70;99.90
8332;DHT22;4203;48.144;14.118;2023-06-22T02:43:08;16.80;99.90
8332;DHT22;4203;48.144;14.118;2023-06-22T02:45:35;16.80;99.90
8332;DHT22;4203;48.144;14.118;2023-06-22T02:48:03;17.40;99.90
8332;DHT22;4203;48.144;14.118;2023-06-22T02:50:30;16.80;99.90
8332;DHT22;4203;48.144;14.118;2023-06-22T02:52:59;16.80;99.90
8332;DHT22;4203;48.144;14.118;2023-06-22T02:55:26;16.90;99.90
8332;DHT22;4203;48.144;14.118;2023-06-22T02:57:53;16.90;99.90
8332;DHT22;4203;48.144;14.118;2023-06-22T03:00:20;16.90;99.90
8332;DHT22;4203;48.144;14.118;2023-06-22T03:02:48;17.00;99.90
8332;DHT22;4203;48.144;14.118;2023-06-22T03:05:16;16.90;99.90
8332;DHT22;4203;48.144;14.118;2023-06-22T03:07:44;17.00;99.90
8332;DHT22;4203;48.144;14.118;2023-06-22T03:10:13;17.00;99.90
8332;DHT22;4203;48.144;14.118;2023-06-22T03:12:41;17.00;99.90
8332;DHT22;4203;48.144;14.118;2023-06-22T03:15:10;17.10;99.90
8332;DHT22;4203;48.144;14.118;2023-06-22T03:17:39;17.10;99.90
8332;DHT22;4203;48.144;14.118;2023-06-22T03:20:09;17.20;99.90
8332;DHT22;4203;48.144;14.118;2023-06-22T03:22:37;17.20;99.90
8332;DHT22;4203;48.144;14.118;2023-06-22T03:25:05;17.20;99.90
8332;DHT22;4203;48.144;14.118;2023-06-22T03:27:37;17.20;99.90
8332;DHT22;4203;48.144;14.118;2023-06-22T03:30:05;17.30;99.90
8332;DHT22;4203;48.144;14.118;2023-06-22T03:32:32;17.30;99.90
8332;DHT22;4203;48.144;14.118;2023-06-22T03:34:59;17.50;99.90
8332;DHT22;4203;48.144;14.118;2023-06-22T03:37:27;17.50;99.90
8332;DHT22;4203;48.144;14.118;2023-06-22T03:39:55;17.60;99.90
8332;DHT22;4203;48.144;14.118;2023-06-22T03:42:22;17.60;99.90
8332;DHT22;4203;48.144;14.118;2023-06-22T03:44:50;17.70;99.90
8332;DHT22;4203;48.144;14.118;2023-06-22T03:47:18;17.80;99.90
8332;DHT22;4203;48.144;14.118;2023-06-22T03:49:45;17.80;99.90
8332;DHT22;4203;48.144;14.118;2023-06-22T03:52:12;17.90;99.90
8332;DHT22;4203;48.144;14.118;2023-06-22T03:54:39;18.00;99.90
8332;DHT22;4203;48.144;14.118;2023-06-22T03:57:06;18.00;99.90
8332;DHT22;4203;48.144;14.118;2023-06-22T03:59:34;18.10;99.90
8332;DHT22;4203;48.144;14.118;2023-06-22T04:02:04;18.20;99.90
8332;DHT22;4203;48.144;14.118;2023-06-22T04:04:31;18.30;99.90
8332;DHT22;4203;48.144;14.118;2023-06-22T04:06:59;18.30;99.90
8332;DHT22;4203;48.144;14.118;2023-06-22T04:09:26;18.40;99.90
8332;DHT22;4203;48.144;14.118;2023-06-22T04:11:54;18.50;99.90
8332;DHT22;4203;48.144;14.118;2023-06-22T04:14:21;18.60;99.90
8332;DHT22;4203;48.144;14.118;2023-06-22T04:16:48;18.60;99.90
8332;DHT22;4203;48.144;14.118;2023-06-22T04:19:16;18.70;99.90
8332;DHT22;4203;48.144;14.118;2023-06-22T04:21:44;18.90;99.90
8332;DHT22;4203;48.144;14.118;2023-06-22T04:24:11;18.90;99.90
8332;DHT22;4203;48.144;14.118;2023-06-22T04:26:38;19.00;99.90
8332;DHT22;4203;48.144;14.118;2023-06-22T04:29:07;19.20;99.90
8332;DHT22;4203;48.144;14.118;2023-06-22T04:31:35;19.30;99.90
8332;DHT22;4203;48.144;14.118;2023-06-22T04:34:03;19.40;99.90
8332;DHT22;4203;48.144;14.118;2023-06-22T04:36:34;19.50;99.90
8332;DHT22;4203;48.144;14.118;2023-06-22T04:39:06;19.70;99.90
8332;DHT22;4203;48.144;14.118;2023-06-22T04:41:35;19.80;99.90
8332;DHT22;4203;48.144;14.118;2023-06-22T04:44:09;19.90;99.90
8332;DHT22;4203;48.144;14.118;2023-06-22T04:46:36;20.00;99.90
8332;DHT22;4203;48.144;14.118;2023-06-22T04:49:08;20.10;99.90
8332;DHT22;4203;48.144;14.118;2023-06-22T04:51:42;20.30;99.90
8332;DHT22;4203;48.144;14.118;2023-06-22T04:54:09;20.40;99.90
8332;DHT22;4203;48.144;14.118;2023-06-22T04:56:37;20.60;99.90
8332;DHT22;4203;48.144;14.118;2023-06-22T04:59:07;20.80;99.90
8332;DHT22;4203;48.144;14.118;2023-06-22T05:01:38;20.90;99.90
8332;DHT22;4203;48.144;14.118;2023-06-22T05:04:05;20.90;99.90
8332;DHT22;4203;48.144;14.118;2023-06-22T05:06:33;20.80;99.90
8332;DHT22;4203;48.144;14.118;2023-06-22T05:09:02;20.70;99.90
8332;DHT22;4203;48.144;14.118;2023-06-22T05:11:30;20.80;99.90
8332;DHT22;4203;48.144;14.118;2023-06-22T05:13:58;20.80;99.90
8332;DHT22;4203;48.144;14.118;2023-06-22T05:16:25;20.90;99.90
8332;DHT22;4203;48.144;14.118;2023-06-22T05:18:52;21.10;99.90
8332;DHT22;4203;48.144;14.118;2023-06-22T05:21:24;21.20;99.90
8332;DHT22;4203;48.144;14.118;2023-06-22T05:23:51;21.40;99.90
8332;DHT22;4203;48.144;14.118;2023-06-22T05:26:20;21.60;99.90
8332;DHT22;4203;48.144;14.118;2023-06-22T05:28:48;21.70;99.90
8332;DHT22;4203;48.144;14.118;2023-06-22T05:31:15;21.80;99.90
8332;DHT22;4203;48.144;14.118;2023-06-22T05:33:43;21.90;99.90
8332;DHT22;4203;48.144;14.118;2023-06-22T05:36:11;22.00;99.90
8332;DHT22;4203;48.144;14.118;2023-06-22T05:38:39;22.20;99.90
8332;DHT22;4203;48.144;14.118;2023-06-22T05:41:06;22.10;99.90
8332;DHT22;4203;48.144;14.118;2023-06-22T05:43:34;22.20;99.90
8332;DHT22;4203;48.144;14.118;2023-06-22T05:46:02;22.30;99.90
8332;DHT22;4203;48.144;14.118;2023-06-22T05:48:29;22.40;99.90
8332;DHT22;4203;48.144;14.118;2023-06-22T05:50:57;22.60;99.90
8332;DHT22;4203;48.144;14.118;2023-06-22T05:53:24;22.80;99.90
8332;DHT22;4203;48.144;14.118;2023-06-22T05:55:51;23.00;99.90
8332;DHT22;4203;48.144;14.118;2023-06-22T05:58:19;23.10;99.90
8332;DHT22;4203;48.144;14.118;2023-06-22T06:00:47;23.30;99.90
8332;DHT22;4203;48.144;14.118;2023-06-22T06:03:15;23.40;99.90
8332;DHT22;4203;48.144;14.118;2023-06-22T06:05:43;23.60;99.90
8332;DHT22;4203;48.144;14.118;2023-06-22T06:08:11;23.80;99.90
8332;DHT22;4203;48.144;14.118;2023-06-22T06:10:38;23.90;99.90
8332;DHT22;4203;48.144;14.118;2023-06-22T06:13:06;24.20;99.90
8332;DHT22;4203;48.144;14.118;2023-06-22T06:15:35;24.20;99.90
8332;DHT22;4203;48.144;14.118;2023-06-22T06:18:06;24.30;99.90
8332;DHT22;4203;48.144;14.118;2023-06-22T06:20:33;24.50;99.90
8332;DHT22;4203;48.144;14.118;2023-06-22T06:23:00;24.80;99.90
8332;DHT22;4203;48.144;14.118;2023-06-22T06:25:27;24.90;99.90
8332;DHT22;4203;48.144;14.118;2023-06-22T06:27:54;24.90;99.90
8332;DHT22;4203;48.144;14.118;2023-06-22T06:30:22;25.00;99.90
8332;DHT22;4203;48.144;14.118;2023-06-22T06:32:50;25.10;99.90
8332;DHT22;4203;48.144;14.118;2023-06-22T06:35:18;25.30;99.90
8332;DHT22;4203;48.144;14.118;2023-06-22T06:37:47;25.60;99.90
8332;DHT22;4203;48.144;14.118;2023-06-22T06:40:15;25.70;99.90
8332;DHT22;4203;48.144;14.118;2023-06-22T06:42:44;25.90;99.90
8332;DHT22;4203;48.144;14.118;2023-06-22T06:45:12;26.10;99.90
8332;DHT22;4203;48.144;14.118;2023-06-22T06:47:39;26.20;99.90
8332;DHT22;4203;48.144;14.118;2023-06-22T06:50:08;26.50;99.90
8332;DHT22;4203;48.144;14.118;2023-06-22T06:52:36;26.60;99.90
8332;DHT22;4203;48.144;14.118;2023-06-22T06:55:04;26.70;99.90
8332;DHT22;4203;48.144;14.118;2023-06-22T06:57:34;26.80;99.90
8332;DHT22;4203;48.144;14.118;2023-06-22T07:00:03;26.90;99.90
8332;DHT22;4203;48.144;14.118;2023-06-22T07:02:35;27.10;99.90
8332;DHT22;4203;48.144;14.118;2023-06-22T07:08:27;27.50;99.90
8332;DHT22;4203;48.144;14.118;2023-06-22T07:10:54;27.60;99.90
8332;DHT22;4203;48.144;14.118;2023-06-22T07:13:22;27.90;99.90
8332;DHT22;4203;48.144;14.118;2023-06-22T07:15:49;28.00;99.90
8332;DHT22;4203;48.144;14.118;2023-06-22T07:18:16;28.00;99.90
8332;DHT22;4203;48.144;14.118;2023-06-22T07:20:43;28.10;99.90
8332;DHT22;4203;48.144;14.118;2023-06-22T07:23:10;28.20;99.90
8332;DHT22;4203;48.144;14.118;2023-06-22T07:25:39;28.50;99.90
8332;DHT22;4203;48.144;14.118;2023-06-22T07:28:07;28.70;99.90
8332;DHT22;4203;48.144;14.118;2023-06-22T07:30:34;28.90;99.90
8332;DHT22;4203;48.144;14.118;2023-06-22T07:33:02;29.20;99.90
8332;DHT22;4203;48.144;14.118;2023-06-22T07:35:32;29.20;99.90
8332;DHT22;4203;48.144;14.118;2023-06-22T07:37:59;29.20;99.90
8332;DHT22;4203;48.144;14.118;2023-06-22T07:40:26;28.80;99.90
8332;DHT22;4203;48.144;14.118;2023-06-22T07:42:55;28.60;99.90
8332;DHT22;4203;48.144;14.118;2023-06-22T07:45:22;28.50;99.90
8332;DHT22;4203;48.144;14.118;2023-06-22T07:47:50;28.60;99.90
8332;DHT22;4203;48.144;14.118;2023-06-22T07:50:17;28.70;99.90
8332;DHT22;4203;48.144;14.118;2023-06-22T07:52:44;28.80;99.90
8332;DHT22;4203;48.144;14.118;2023-06-22T07:55:11;29.00;99.90
8332;DHT22;4203;48.144;14.118;2023-06-22T07:57:39;29.10;99.90
8332;DHT22;4203;48.144;14.118;2023-06-22T08:00:10;29.50;99.90
8332;DHT22;4203;48.144;14.118;2023-06-22T08:02:40;29.90;99.90
8332;DHT22;4203;48.144;14.118;2023-06-22T08:05:08;30.20;99.90
8332;DHT22;4203;48.144;14.118;2023-06-22T08:07:35;30.30;99.90
8332;DHT22;4203;48.144;14.118;2023-06-22T08:10:05;30.60;99.90
8332;DHT22;4203;48.144;14.118;2023-06-22T08:12:32;30.70;99.90
8332;DHT22;4203;48.144;14.118;2023-06-22T08:14:59;30.70;99.90
8332;DHT22;4203;48.144;14.118;2023-06-22T08:17:28;30.50;99.90
8332;DHT22;4203;48.144;14.118;2023-06-22T08:19:56;30.30;99.90
8332;DHT22;4203;48.144;14.118;2023-06-22T08:22:23;30.20;99.90
8332;DHT22;4203;48.144;14.118;2023-06-22T08:24:50;30.20;99.90
8332;DHT22;4203;48.144;14.118;2023-06-22T08:27:18;30.30;99.90
8332;DHT22;4203;48.144;14.118;2023-06-22T08:29:47;30.60;99.90
8332;DHT22;4203;48.144;14.118;2023-06-22T08:32:15;31.00;99.90
8332;DHT22;4203;48.144;14.118;2023-06-22T08:34:44;31.10;99.90
8332;DHT22;4203;48.144;14.118;2023-06-22T08:37:11;31.20;99.90
8332;DHT22;4203;48.144;14.118;2023-06-22T08:39:38;31.30;99.90
8332;DHT22;4203;48.144;14.118;2023-06-22T08:42:06;31.10;99.90
8332;DHT22;4203;48.144;14.118;2023-06-22T08:44:33;31.40;99.90
8332;DHT22;4203;48.144;14.118;2023-06-22T08:47:00;31.70;99.90
8332;DHT22;4203;48.144;14.118;2023-06-22T08:49:29;31.50;99.90
8332;DHT22;4203;48.144;14.118;2023-06-22T08:51:57;31.80;99.90
8332;DHT22;4203;48.144;14.118;2023-06-22T08:54:24;32.10;99.90
8332;DHT22;4203;48.144;14.118;2023-06-22T08:56:52;32.30;99.90
8332;DHT22;4203;48.144;14.118;2023-06-22T08:59:19;32.50;99.90
8332;DHT22;4203;48.144;14.118;2023-06-22T09:01:46;32.60;99.90
8332;DHT22;4203;48.144;14.118;2023-06-22T09:04:14;32.70;99.90
8332;DHT22;4203;48.144;14.118;2023-06-22T09:06:42;32.80;99.90
8332;DHT22;4203;48.144;14.118;2023-06-22T09:09:15;32.90;99.90
8332;DHT22;4203;48.144;14.118;2023-06-22T09:11:43;33.10;99.90
8332;DHT22;4203;48.144;14.118;2023-06-22T09:14:11;33.30;99.90
8332;DHT22;4203;48.144;14.118;2023-06-22T09:16:38;33.30;99.90
8332;DHT22;4203;48.144;14.118;2023-06-22T09:19:05;33.30;99.90
8332;DHT22;4203;48.144;14.118;2023-06-22T09:21:33;33.30;99.90
8332;DHT22;4203;48.144;14.118;2023-06-22T09:24:00;33.20;99.90
8332;DHT22;4203;48.144;14.118;2023-06-22T09:26:29;33.50;99.90
8332;DHT22;4203;48.144;14.118;2023-06-22T09:28:57;33.70;99.90
8332;DHT22;4203;48.144;14.118;2023-06-22T09:31:24;33.90;99.90
8332;DHT22;4203;48.144;14.118;2023-06-22T09:33:53;34.30;99.90
8332;DHT22;4203;48.144;14.118;2023-06-22T09:36:20;34.40;99.90
8332;DHT22;4203;48.144;14.118;2023-06-22T09:38:48;34.70;99.90
8332;DHT22;4203;48.144;14.118;2023-06-22T09:41:21;35.00;99.90
8332;DHT22;4203;48.144;14.118;2023-06-22T09:43:50;35.00;99.90
8332;DHT22;4203;48.144;14.118;2023-06-22T09:46:17;34.60;99.90
8332;DHT22;4203;48.144;14.118;2023-06-22T09:48:47;34.60;99.90
8332;DHT22;4203;48.144;14.118;2023-06-22T09:51:14;33.80;99.90
8332;DHT22;4203;48.144;14.118;2023-06-22T09:53:41;33.70;99.90
8332;DHT22;4203;48.144;14.118;2023-06-22T09:56:09;33.60;99.90
8332;DHT22;4203;48.144;14.118;2023-06-22T09:58:41;33.70;99.90
8332;DHT22;4203;48.144;14.118;2023-06-22T10:01:10;33.20;99.90
8332;DHT22;4203;48.144;14.118;2023-06-22T10:03:37;33.50;99.90
8332;DHT22;4203;48.144;14.118;2023-06-22T10:06:04;33.90;99.90
8332;DHT22;4203;48.144;14.118;2023-06-22T10:08:31;34.00;99.90
8332;DHT22;4203;48.144;14.118;2023-06-22T10:10:59;34.40;99.90
8332;DHT22;4203;48.144;14.118;2023-06-22T10:13:26;34.80;99.90
8332;DHT22;4203;48.144;14.118;2023-06-22T10:15:53;35.10;99.90
8332;DHT22;4203;48.144;14.118;2023-06-22T10:18:22;35.30;99.90
8332;DHT22;4203;48.144;14.118;2023-06-22T10:20:50;35.60;99.90
8332;DHT22;4203;48.144;14.118;2023-06-22T10:23:17;35.60;99.90
8332;DHT22;4203;48.144;14.118;2023-06-22T10:25:45;35.70;99.90
8332;DHT22;4203;48.144;14.118;2023-06-22T10:28:12;35.70;99.90
8332;DHT22;4203;48.144;14.118;2023-06-22T10:30:40;35.70;99.90
8332;DHT22;4203;48.144;14.118;2023-06-22T10:33:07;35.70;99.90
8332;DHT22;4203;48.144;14.118;2023-06-22T10:35:37;35.60;99.90
8332;DHT22;4203;48.144;14.118;2023-06-22T10:38:04;35.60;99.90
8332;DHT22;4203;48.144;14.118;2023-06-22T10:40:32;35.90;99.90
8332;DHT22;4203;48.144;14.118;2023-06-22T10:42:59;35.70;99.90
8332;DHT22;4203;48.144;14.118;2023-06-22T10:45:26;35.40;99.90
8332;DHT22;4203;48.144;14.118;2023-06-22T10:47:54;35.30;99.90
8332;DHT22;4203;48.144;14.118;2023-06-22T10:50:21;35.10;99.90
8332;DHT22;4203;48.144;14.118;2023-06-22T10:52:51;35.10;99.90
8332;DHT22;4203;48.144;14.118;2023-06-22T10:55:18;35.40;99.90
8332;DHT22;4203;48.144;14.118;2023-06-22T10:57:45;35.80;99.90
8332;DHT22;4203;48.144;14.118;2023-06-22T11:00:14;35.90;99.90
8332;DHT22;4203;48.144;14.118;2023-06-22T11:02:41;36.00;99.90
8332;DHT22;4203;48.144;14.118;2023-06-22T11:05:08;35.90;99.90
8332;DHT22;4203;48.144;14.118;2023-06-22T11:07:36;35.80;99.90
8332;DHT22;4203;48.144;14.118;2023-06-22T11:10:06;35.60;99.90
8332;DHT22;4203;48.144;14.118;2023-06-22T11:12:34;35.60;99.90
8332;DHT22;4203;48.144;14.118;2023-06-22T11:15:01;35.70;99.90
8332;DHT22;4203;48.144;14.118;2023-06-22T11:17:28;35.90;99.90
8332;DHT22;4203;48.144;14.118;2023-06-22T11:19:55;36.00;99.90
8332;DHT22;4203;48.144;14.118;2023-06-22T11:22:22;36.00;99.90
8332;DHT22;4203;48.144;14.118;2023-06-22T11:24:50;36.00;99.90
8332;DHT22;4203;48.144;14.118;2023-06-22T11:27:18;35.70;99.90
8332;DHT22;4203;48.144;14.118;2023-06-22T11:29:45;35.30;99.90
8332;DHT22;4203;48.144;14.118;2023-06-22T11:32:13;35.20;99.90
8332;DHT22;4203;48.144;14.118;2023-06-22T11:34:40;35.40;99.90
8332;DHT22;4203;48.144;14.118;2023-06-22T11:37:07;35.50;99.90
8332;DHT22;4203;48.144;14.118;2023-06-22T11:39:34;35.30;99.90
8332;DHT22;4203;48.144;14.118;2023-06-22T11:42:01;35.30;99.90
8332;DHT22;4203;48.144;14.118;2023-06-22T11:44:30;35.40;99.90
8332;DHT22;4203;48.144;14.118;2023-06-22T11:46:57;35.50;99.90
8332;DHT22;4203;48.144;14.118;2023-06-22T11:49:26;35.30;99.90
8332;DHT22;4203;48.144;14.118;2023-06-22T11:51:53;35.00;99.90
8332;DHT22;4203;48.144;14.118;2023-06-22T11:54:20;35.20;99.90
8332;DHT22;4203;48.144;14.118;2023-06-22T11:56:48;35.40;99.90
8332;DHT22;4203;48.144;14.118;2023-06-22T11:59:15;35.70;99.90
8332;DHT22;4203;48.144;14.118;2023-06-22T12:01:43;36.00;99.90
8332;DHT22;4203;48.144;14.118;2023-06-22T12:04:10;36.10;99.90
8332;DHT22;4203;48.144;14.118;2023-06-22T12:06:38;36.20;99.90
8332;DHT22;4203;48.144;14.118;2023-06-22T12:09:07;36.40;99.90
8332;DHT22;4203;48.144;14.118;2023-06-22T12:11:34;36.30;99.90
8332;DHT22;4203;48.144;14.118;2023-06-22T12:14:02;36.20;99.90
8332;DHT22;4203;48.144;14.118;2023-06-22T12:16:29;36.20;99.90
8332;DHT22;4203;48.144;14.118;2023-06-22T12:18:57;36.00;99.90
8332;DHT22;4203;48.144;14.118;2023-06-22T12:21:25;36.00;99.90
8332;DHT22;4203;48.144;14.118;2023-06-22T12:23:52;36.20;99.90
8332;DHT22;4203;48.144;14.118;2023-06-22T12:26:19;36.20;99.90
8332;DHT22;4203;48.144;14.118;2023-06-22T12:28:47;36.10;99.90
8332;DHT22;4203;48.144;14.118;2023-06-22T12:31:15;36.10;99.90
8332;DHT22;4203;48.144;14.118;2023-06-22T12:33:42;36.30;99.90
8332;DHT22;4203;48.144;14.118;2023-06-22T12:36:10;36.30;99.90
8332;DHT22;4203;48.144;14.118;2023-06-22T12:38:37;36.40;99.90
8332;DHT22;4203;48.144;14.118;2023-06-22T12:41:05;36.60;99.90
8332;DHT22;4203;48.144;14.118;2023-06-22T12:43:32;36.40;99.90
8332;DHT22;4203;48.144;14.118;2023-06-22T12:45:59;36.50;99.90
8332;DHT22;4203;48.144;14.118;2023-06-22T12:48:27;36.40;99.90
8332;DHT22;4203;48.144;14.118;2023-06-22T12:50:54;36.30;99.90
8332;DHT22;4203;48.144;14.118;2023-06-22T12:53:23;36.30;99.90
8332;DHT22;4203;48.144;14.118;2023-06-22T12:55:53;36.30;99.90
8332;DHT22;4203;48.144;14.118;2023-06-22T12:58:20;36.40;99.90
8332;DHT22;4203;48.144;14.118;2023-06-22T13:00:48;36.30;99.90
8332;DHT22;4203;48.144;14.118;2023-06-22T13:03:15;36.30;99.90
8332;DHT22;4203;48.144;14.118;2023-06-22T13:05:42;35.70;99.90
8332;DHT22;4203;48.144;14.118;2023-06-22T13:08:09;35.50;99.90
8332;DHT22;4203;48.144;14.118;2023-06-22T13:10:38;35.40;99.90
8332;DHT22;4203;48.144;14.118;2023-06-22T13:13:05;35.30;99.90
8332;DHT22;4203;48.144;14.118;2023-06-22T13:15:32;35.30;99.90
8332;DHT22;4203;48.144;14.118;2023-06-22T13:17:59;35.50;99.90
8332;DHT22;4203;48.144;14.118;2023-06-22T13:20:28;35.80;99.90
8332;DHT22;4203;48.144;14.118;2023-06-22T13:22:55;35.90;99.90
8332;DHT22;4203;48.144;14.118;2023-06-22T13:25:22;36.20;99.90
8332;DHT22;4203;48.144;14.118;2023-06-22T13:27:53;36.40;99.90
8332;DHT22;4203;48.144;14.118;2023-06-22T13:30:20;36.40;99.90
8332;DHT22;4203;48.144;14.118;2023-06-22T13:32:47;36.30;99.90
8332;DHT22;4203;48.144;14.118;2023-06-22T13:35:15;36.20;99.90
8332;DHT22;4203;48.144;14.118;2023-06-22T13:37:42;36.20;99.90
8332;DHT22;4203;48.144;14.118;2023-06-22T13:40:09;36.20;99.90
8332;DHT22;4203;48.144;14.118;2023-06-22T13:42:37;36.20;99.90
8332;DHT22;4203;48.144;14.118;2023-06-22T13:45:07;36.20;99.90
8332;DHT22;4203;48.144;14.118;2023-06-22T13:47:34;36.00;99.90
8332;DHT22;4203;48.144;14.118;2023-06-22T13:50:01;35.90;99.90
8332;DHT22;4203;48.144;14.118;2023-06-22T13:52:29;35.80;99.90
8332;DHT22;4203;48.144;14.118;2023-06-22T13:54:56;35.60;99.90
8332;DHT22;4203;48.144;14.118;2023-06-22T13:57:23;35.60;99.90
8332;DHT22;4203;48.144;14.118;2023-06-22T13:59:50;35.60;99.90
8332;DHT22;4203;48.144;14.118;2023-06-22T14:02:19;35.40;99.90
8332;DHT22;4203;48.144;14.118;2023-06-22T14:04:46;35.50;99.90
8332;DHT22;4203;48.144;14.118;2023-06-22T14:07:13;35.40;99.90
8332;DHT22;4203;48.144;14.118;2023-06-22T14:09:40;35.20;99.90
8332;DHT22;4203;48.144;14.118;2023-06-22T14:12:08;35.20;99.90
8332;DHT22;4203;48.144;14.118;2023-06-22T14:14:35;35.20;99.90
8332;DHT22;4203;48.144;14.118;2023-06-22T14:17:03;35.30;99.90
8332;DHT22;4203;48.144;14.118;2023-06-22T14:19:32;35.30;99.90
8332;DHT22;4203;48.144;14.118;2023-06-22T14:21:59;35.10;99.90
8332;DHT22;4203;48.144;14.118;2023-06-22T14:24:27;35.10;99.90
8332;DHT22;4203;48.144;14.118;2023-06-22T14:26:54;35.10;99.90
8332;DHT22;4203;48.144;14.118;2023-06-22T14:29:21;35.10;99.90
8332;DHT22;4203;48.144;14.118;2023-06-22T14:31:49;34.90;99.90
8332;DHT22;4203;48.144;14.118;2023-06-22T14:34:16;34.60;99.90
8332;DHT22;4203;48.144;14.118;2023-06-22T14:36:45;34.30;99.90
8332;DHT22;4203;48.144;14.118;2023-06-22T14:39:12;34.10;99.90
8332;DHT22;4203;48.144;14.118;2023-06-22T14:41:39;34.10;99.90
8332;DHT22;4203;48.144;14.118;2023-06-22T14:44:06;34.10;99.90
8332;DHT22;4203;48.144;14.118;2023-06-22T14:46:33;34.10;99.90
8332;DHT22;4203;48.144;14.118;2023-06-22T14:49:00;34.00;99.90
8332;DHT22;4203;48.144;14.118;2023-06-22T14:51:28;33.90;99.90
8332;DHT22;4203;48.144;14.118;2023-06-22T14:53:56;34.00;99.90
8332;DHT22;4203;48.144;14.118;2023-06-22T14:56:23;34.00;99.90
8332;DHT22;4203;48.144;14.118;2023-06-22T14:58:51;33.90;99.90
8332;DHT22;4203;48.144;14.118;2023-06-22T15:01:18;34.00;99.90
8332;DHT22;4203;48.144;14.118;2023-06-22T15:03:45;34.00;99.90
8332;DHT22;4203;48.144;14.118;2023-06-22T15:06:12;34.00;99.90
8332;DHT22;4203;48.144;14.118;2023-06-22T15:08:40;33.90;99.90
8332;DHT22;4203;48.144;14.118;2023-06-22T15:11:10;33.70;99.90
8332;DHT22;4203;48.144;14.118;2023-06-22T15:13:39;33.70;99.90
8332;DHT22;4203;48.144;14.118;2023-06-22T15:16:07;33.50;99.90
8332;DHT22;4203;48.144;14.118;2023-06-22T15:18:35;33.40;99.90
8332;DHT22;4203;48.144;14.118;2023-06-22T15:21:04;33.50;99.90
8332;DHT22;4203;48.144;14.118;2023-06-22T15:23:32;33.50;99.90
8332;DHT22;4203;48.144;14.118;2023-06-22T15:26:02;33.50;99.90
8332;DHT22;4203;48.144;14.118;2023-06-22T15:28:32;33.30;99.90
8332;DHT22;4203;48.144;14.118;2023-06-22T15:31:00;33.20;99.90
8332;DHT22;4203;48.144;14.118;2023-06-22T15:33:28;33.00;99.90
8332;DHT22;4203;48.144;14.118;2023-06-22T15:35:57;32.90;99.90
8332;DHT22;4203;48.144;14.118;2023-06-22T15:38:30;32.80;99.90
8332;DHT22;4203;48.144;14.118;2023-06-22T15:40:58;32.80;99.90
8332;DHT22;4203;48.144;14.118;2023-06-22T15:43:25;32.80;99.90
8332;DHT22;4203;48.144;14.118;2023-06-22T15:45:54;32.80;99.90
8332;DHT22;4203;48.144;14.118;2023-06-22T15:48:21;32.70;99.90
8332;DHT22;4203;48.144;14.118;2023-06-22T15:50:49;32.60;99.90
8332;DHT22;4203;48.144;14.118;2023-06-22T15:53:16;32.60;99.90